Terminal Aerodrome Forecast
Issued by NWS Albany, NY

Home | Current Version | Previous Version | Text Only | Print | Product List | Glossary On
Versions: 1 2 3 4 5 6 7 8 9 10 11 12 13 14 15 16 17 18 19 20
000
FTUS41 KALY 271140
TAFALB
TAF
KALB 271140Z 2712/2812 36006KT P6SM SCT025 BKN110
      TEMPO 2712/2714 BKN025 BKN110
     FM271400 34006KT P6SM SCT050 SCT110
     FM271700 31008KT P6SM BKN050
     FM272200 30008KT P6SM SCT050
     FM280200 29006KT P6SM SKC=

USA.gov is the U.S. government's official web portal to all federal, state and local government web resources and services.